Time,TemperatureF,DewpointF,PressureIn,WindDirection,WindDirectionDegrees,WindSpeedMPH,WindSpeedGustMPH,Humidity,HourlyPrecipIn,Conditions,Clouds,dailyrainin,SolarRadiationWatts/m^2,SoftwareType,DateUTC
2013-07-31 00:02:00,64.5,59.9,30.05,WNW,297,2.0,2.0,85,0.00,,,0.00,0,Wunderground v.1.15,2013-07-31 04:02:00,
2013-07-31 00:12:00,64.4,60.1,30.05,WNW,297,0.0,1.0,86,0.00,,,0.00,0,Wunderground v.1.15,2013-07-31 04:12:00,
2013-07-31 00:17:00,64.4,60.1,30.05,WNW,298,0.0,0.0,86,0.00,,,0.00,0,Wunderground v.1.15,2013-07-31 04:17:00,
2013-07-31 00:22:00,64.2,59.6,30.05,NW,306,1.0,2.0,85,0.00,,,0.00,0,Wunderground v.1.15,2013-07-31 04:22:00,
2013-07-31 00:27:00,64.2,59.6,30.05,West,273,1.0,1.0,85,0.00,,,0.00,0,Wunderground v.1.15,2013-07-31 04:27:00,
2013-07-31 00:32:00,64.4,59.1,30.05,WSW,238,1.0,1.0,83,0.00,,,0.00,0,Wunderground v.1.15,2013-07-31 04:32:00,
2013-07-31 00:37:00,64.6,60.0,30.05,NW,315,1.0,1.0,85,0.00,,,0.00,0,Wunderground v.1.15,2013-07-31 04:37:00,
2013-07-31 00:42:00,64.2,59.9,30.05,NW,315,0.0,1.0,86,0.00,,,0.00,0,Wunderground v.1.15,2013-07-31 04:42:00,
2013-07-31 00:52:00,63.1,59.2,30.05,NW,315,0.0,0.0,87,0.00,,,0.00,0,Wunderground v.1.15,2013-07-31 04:52:00,
2013-07-31 00:57:00,62.8,58.9,30.05,NW,315,0.0,0.0,87,0.00,,,0.00,0,Wunderground v.1.15,2013-07-31 04:57:00,
2013-07-31 01:02:00,62.7,59.1,30.05,NW,315,0.0,0.0,88,0.00,,,0.00,0,Wunderground v.1.15,2013-07-31 05:02:00,
2013-07-31 01:07:00,62.6,59.0,30.05,NW,315,0.0,0.0,88,0.00,,,0.00,0,Wunderground v.1.15,2013-07-31 05:07:00,
2013-07-31 01:12:00,62.5,59.2,30.05,NW,314,0.0,0.0,89,0.00,,,0.00,0,Wunderground v.1.15,2013-07-31 05:12:00,
2013-07-31 01:17:00,62.3,59.0,30.05,NW,314,0.0,0.0,89,0.00,,,0.00,0,Wunderground v.1.15,2013-07-31 05:17:00,
2013-07-31 01:22:00,62.2,58.9,30.05,NW,314,0.0,0.0,89,0.00,,,0.00,0,Wunderground v.1.15,2013-07-31 05:22:00,
2013-07-31 01:27:00,62.1,58.8,30.05,NW,314,0.0,0.0,89,0.00,,,0.00,0,Wunderground v.1.15,2013-07-31 05:27:00,
2013-07-31 01:32:00,61.8,58.8,30.05,NW,314,0.0,0.0,90,0.00,,,0.00,0,Wunderground v.1.15,2013-07-31 05:32:00,
2013-07-31 01:37:00,61.5,58.5,30.05,NW,314,0.0,0.0,90,0.00,,,0.00,0,Wunderground v.1.15,2013-07-31 05:37:00,
2013-07-31 01:42:00,61.3,58.7,30.05,NW,314,0.0,0.0,91,0.00,,,0.00,0,Wunderground v.1.15,2013-07-31 05:42:00,
2013-07-31 01:52:00,60.9,58.6,30.05,NW,314,0.0,0.0,92,0.00,,,0.00,0,Wunderground v.1.15,2013-07-31 05:52:00,
2013-07-31 01:57:00,60.6,58.3,30.05,NW,315,0.0,0.0,92,0.00,,,0.00,0,Wunderground v.1.15,2013-07-31 05:57:00,
2013-07-31 02:02:00,60.5,58.2,30.05,NW,314,0.0,0.0,92,0.00,,,0.00,0,Wunderground v.1.15,2013-07-31 06:02:00,
2013-07-31 02:12:00,60.1,57.8,30.05,NW,314,0.0,0.0,92,0.00,,,0.00,0,Wunderground v.1.15,2013-07-31 06:12:00,
2013-07-31 02:17:00,60.0,57.7,30.05,NW,315,0.0,0.0,92,0.00,,,0.00,0,Wunderground v.1.15,2013-07-31 06:17:00,
2013-07-31 02:22:00,59.8,57.8,30.05,NW,314,0.0,0.0,93,0.00,,,0.00,0,Wunderground v.1.15,2013-07-31 06:22:00,
2013-07-31 02:27:00,59.6,57.6,30.05,NW,314,0.0,0.0,93,0.00,,,0.00,0,Wunderground v.1.15,2013-07-31 06:27:00,
2013-07-31 02:32:00,59.5,57.5,30.06,NW,314,0.0,0.0,93,0.00,,,0.00,0,Wunderground v.1.15,2013-07-31 06:32:00,
2013-07-31 02:37:00,59.5,57.8,30.06,WNW,290,0.0,0.0,94,0.00,,,0.00,0,Wunderground v.1.15,2013-07-31 06:37:00,
2013-07-31 02:42:00,59.3,57.6,30.06,WNW,290,0.0,0.0,94,0.00,,,0.00,0,Wunderground v.1.15,2013-07-31 06:42:00,
2013-07-31 02:47:00,59.2,57.5,30.05,WNW,290,0.0,0.0,94,0.00,,,0.00,0,Wunderground v.1.15,2013-07-31 06:47:00,
2013-07-31 02:52:00,59.1,57.4,30.05,WNW,290,0.0,0.0,94,0.00,,,0.00,0,Wunderground v.1.15,2013-07-31 06:52:00,
2013-07-31 02:57:00,59.0,57.3,30.05,WNW,290,0.0,0.0,94,0.00,,,0.00,0,Wunderground v.1.15,2013-07-31 06:57:00,
2013-07-31 03:02:00,58.9,57.2,30.05,WNW,290,0.0,0.0,94,0.00,,,0.00,0,Wunderground v.1.15,2013-07-31 07:02:00,
2013-07-31 03:07:00,58.8,57.1,30.06,WNW,290,0.0,0.0,94,0.00,,,0.00,0,Wunderground v.1.15,2013-07-31 07:07:00,
2013-07-31 03:12:00,58.7,57.0,30.05,WNW,290,0.0,0.0,94,0.00,,,0.00,0,Wunderground v.1.15,2013-07-31 07:12:00,
2013-07-31 03:17:00,58.6,56.9,30.06,WNW,290,0.0,0.0,94,0.00,,,0.00,0,Wunderground v.1.15,2013-07-31 07:17:00,
2013-07-31 03:22:00,58.5,56.8,30.06,WNW,290,0.0,0.0,94,0.00,,,0.00,0,Wunderground v.1.15,2013-07-31 07:22:00,
2013-07-31 03:27:00,58.4,57.0,30.06,WNW,290,0.0,0.0,95,0.00,,,0.00,0,Wunderground v.1.15,2013-07-31 07:27:00,
2013-07-31 03:32:00,58.2,56.8,30.06,WNW,290,0.0,0.0,95,0.00,,,0.00,0,Wunderground v.1.15,2013-07-31 07:32:00,
2013-07-31 03:37:00,58.1,56.4,30.06,WNW,290,0.0,0.0,94,0.00,,,0.00,0,Wunderground v.1.15,2013-07-31 07:37:00,
2013-07-31 03:42:00,58.0,56.6,30.06,WNW,290,0.0,0.0,95,0.00,,,0.00,0,Wunderground v.1.15,2013-07-31 07:42:00,
2013-07-31 03:47:00,57.9,56.5,30.06,WNW,290,0.0,0.0,95,0.00,,,0.00,0,Wunderground v.1.15,2013-07-31 07:47:00,
2013-07-31 03:52:00,57.8,56.4,30.06,WNW,290,0.0,0.0,95,0.00,,,0.00,0,Wunderground v.1.15,2013-07-31 07:52:00,
2013-07-31 03:57:00,57.7,56.3,30.06,WNW,290,0.0,0.0,95,0.00,,,0.00,0,Wunderground v.1.15,2013-07-31 07:57:00,
2013-07-31 04:02:00,57.6,56.2,30.07,WNW,290,0.0,0.0,95,0.00,,,0.00,0,Wunderground v.1.15,2013-07-31 08:02:00,
2013-07-31 04:12:00,57.3,55.9,30.06,WNW,290,0.0,0.0,95,0.00,,,0.00,0,Wunderground v.1.15,2013-07-31 08:12:00,
2013-07-31 04:17:00,57.2,55.8,30.07,WNW,290,0.0,0.0,95,0.00,,,0.00,0,Wunderground v.1.15,2013-07-31 08:17:00,
2013-07-31 04:22:00,57.1,55.7,30.07,WNW,290,0.0,0.0,95,0.00,,,0.00,0,Wunderground v.1.15,2013-07-31 08:22:00,
2013-07-31 04:27:00,57.0,55.6,30.07,WNW,290,0.0,0.0,95,0.00,,,0.00,0,Wunderground v.1.15,2013-07-31 08:27:00,
2013-07-31 04:32:00,56.9,55.5,30.07,WNW,290,0.0,0.0,95,0.00,,,0.00,0,Wunderground v.1.15,2013-07-31 08:32:00,
2013-07-31 04:37:00,56.8,55.4,30.07,WNW,290,0.0,0.0,95,0.00,,,0.00,0,Wunderground v.1.15,2013-07-31 08:37:00,
2013-07-31 04:42:00,56.7,55.3,30.07,WNW,290,0.0,0.0,95,0.00,,,0.00,0,Wunderground v.1.15,2013-07-31 08:42:00,
2013-07-31 04:47:00,56.6,55.5,30.07,WNW,290,0.0,0.0,96,0.00,,,0.00,0,Wunderground v.1.15,2013-07-31 08:47:00,
2013-07-31 04:52:00,56.6,55.5,30.08,WNW,290,0.0,0.0,96,0.00,,,0.00,0,Wunderground v.1.15,2013-07-31 08:52:00,
2013-07-31 04:57:00,56.5,55.4,30.08,WNW,290,0.0,0.0,96,0.00,,,0.00,0,Wunderground v.1.15,2013-07-31 08:57:00,
2013-07-31 05:02:00,56.4,55.3,30.08,WNW,290,0.0,0.0,96,0.00,,,0.00,0,Wunderground v.1.15,2013-07-31 09:02:00,
2013-07-31 05:07:00,56.4,55.3,30.08,WNW,290,0.0,0.0,96,0.00,,,0.00,0,Wunderground v.1.15,2013-07-31 09:07:00,
2013-07-31 05:12:00,56.3,55.2,30.08,WNW,290,0.0,0.0,96,0.00,,,0.00,0,Wunderground v.1.15,2013-07-31 09:12:00,
2013-07-31 05:22:00,56.0,54.9,30.09,WNW,290,0.0,0.0,96,0.00,,,0.00,0,Wunderground v.1.15,2013-07-31 09:22:00,
2013-07-31 05:27:00,55.9,54.8,30.09,WNW,290,0.0,0.0,96,0.00,,,0.00,0,Wunderground v.1.15,2013-07-31 09:27:00,
2013-07-31 05:32:00,55.9,54.8,30.09,WNW,290,0.0,0.0,96,0.00,,,0.00,0,Wunderground v.1.15,2013-07-31 09:32:00,
2013-07-31 05:37:00,55.8,54.7,30.09,WNW,290,0.0,0.0,96,0.00,,,0.00,5,Wunderground v.1.15,2013-07-31 09:37:00,
2013-07-31 05:42:00,55.7,54.6,30.09,WNW,290,0.0,0.0,96,0.00,,,0.00,5,Wunderground v.1.15,2013-07-31 09:42:00,
2013-07-31 05:47:00,55.8,54.7,30.09,WNW,290,0.0,0.0,96,0.00,,,0.00,9,Wunderground v.1.15,2013-07-31 09:47:00,
2013-07-31 05:52:00,55.7,54.6,30.10,WNW,290,0.0,0.0,96,0.00,,,0.00,11,Wunderground v.1.15,2013-07-31 09:52:00,
2013-07-31 05:57:00,55.7,54.6,30.10,WNW,290,0.0,0.0,96,0.00,,,0.00,12,Wunderground v.1.15,2013-07-31 09:57:00,
2013-07-31 06:02:00,55.8,54.7,30.10,WNW,290,0.0,0.0,96,0.00,,,0.00,19,Wunderground v.1.15,2013-07-31 10:02:00,
2013-07-31 06:07:00,55.9,54.8,30.10,WNW,290,0.0,0.0,96,0.00,,,0.00,56,Wunderground v.1.15,2013-07-31 10:07:00,
2013-07-31 06:12:00,56.2,55.4,30.10,WNW,290,0.0,0.0,97,0.00,,,0.00,70,Wunderground v.1.15,2013-07-31 10:12:00,
2013-07-31 06:17:00,56.4,55.3,30.10,WNW,290,0.0,0.0,96,0.00,,,0.00,83,Wunderground v.1.15,2013-07-31 10:17:00,
2013-07-31 06:22:00,56.7,55.6,30.10,WNW,290,0.0,0.0,96,0.00,,,0.00,95,Wunderground v.1.15,2013-07-31 10:22:00,
2013-07-31 06:27:00,56.9,55.8,30.10,WNW,290,0.0,0.0,96,0.00,,,0.00,107,Wunderground v.1.15,2013-07-31 10:27:00,
2013-07-31 06:32:00,57.2,56.1,30.10,WNW,290,0.0,0.0,96,0.00,,,0.00,120,Wunderground v.1.15,2013-07-31 10:32:00,
2013-07-31 06:37:00,57.5,56.1,30.10,WNW,290,0.0,1.0,95,0.00,,,0.00,132,Wunderground v.1.15,2013-07-31 10:37:00,
2013-07-31 06:42:00,57.7,56.3,30.10,WNW,290,0.0,1.0,95,0.00,,,0.00,144,Wunderground v.1.15,2013-07-31 10:42:00,
2013-07-31 06:52:00,58.3,56.6,30.10,WNW,290,0.0,0.0,94,0.00,,,0.00,167,Wunderground v.1.15,2013-07-31 10:52:00,
2013-07-31 06:57:00,58.7,57.0,30.10,WNW,290,0.0,0.0,94,0.00,,,0.00,181,Wunderground v.1.15,2013-07-31 10:57:00,
2013-07-31 07:02:00,59.1,57.1,30.11,WNW,290,0.0,0.0,93,0.00,,,0.00,195,Wunderground v.1.15,2013-07-31 11:02:00,
2013-07-31 07:07:00,59.4,57.4,30.11,WNW,290,0.0,0.0,93,0.00,,,0.00,211,Wunderground v.1.15,2013-07-31 11:07:00,
2013-07-31 07:12:00,59.8,57.8,30.10,WNW,290,0.0,0.0,93,0.00,,,0.00,232,Wunderground v.1.15,2013-07-31 11:12:00,
2013-07-31 07:22:00,60.7,58.4,30.10,WNW,290,0.0,0.0,92,0.00,,,0.00,267,Wunderground v.1.15,2013-07-31 11:22:00,
2013-07-31 07:27:00,61.5,58.8,30.11,WNW,290,0.0,0.0,91,0.00,,,0.00,285,Wunderground v.1.15,2013-07-31 11:27:00,
2013-07-31 07:32:00,62.2,58.9,30.11,WNW,290,0.0,0.0,89,0.00,,,0.00,301,Wunderground v.1.15,2013-07-31 11:32:00,
2013-07-31 07:37:00,62.6,59.3,30.11,WNW,290,0.0,0.0,89,0.00,,,0.00,315,Wunderground v.1.15,2013-07-31 11:37:00,
2013-07-31 07:42:00,63.0,59.4,30.11,WNW,290,0.0,0.0,88,0.00,,,0.00,332,Wunderground v.1.15,2013-07-31 11:42:00,
2013-07-31 07:47:00,63.4,59.1,30.11,WNW,290,0.0,0.0,86,0.00,,,0.00,348,Wunderground v.1.15,2013-07-31 11:47:00,
2013-07-31 07:52:00,63.9,60.0,30.10,WNW,290,0.0,0.0,87,0.00,,,0.00,366,Wunderground v.1.15,2013-07-31 11:52:00,
2013-07-31 07:57:00,64.7,60.1,30.11,WNW,290,0.0,0.0,85,0.00,,,0.00,381,Wunderground v.1.15,2013-07-31 11:57:00,
2013-07-31 08:02:00,65.5,60.5,30.11,WNW,290,0.0,0.0,84,0.00,,,0.00,401,Wunderground v.1.15,2013-07-31 12:02:00,
2013-07-31 08:07:00,66.0,60.7,30.10,WNW,290,0.0,0.0,83,0.00,,,0.00,413,Wunderground v.1.15,2013-07-31 12:07:00,
2013-07-31 08:12:00,66.4,60.4,30.10,WNW,290,0.0,0.0,81,0.00,,,0.00,429,Wunderground v.1.15,2013-07-31 12:12:00,
2013-07-31 08:22:00,67.7,59.9,30.10,WNW,290,0.0,0.0,76,0.00,,,0.00,461,Wunderground v.1.15,2013-07-31 12:22:00,
2013-07-31 08:27:00,68.5,59.5,30.10,WNW,290,0.0,0.0,73,0.00,,,0.00,476,Wunderground v.1.15,2013-07-31 12:27:00,
2013-07-31 08:37:00,69.3,61.0,30.10,SW,228,0.0,0.0,75,0.00,,,0.00,504,Wunderground v.1.15,2013-07-31 12:37:00,
2013-07-31 08:42:00,69.7,59.9,30.10,NW,321,0.0,0.0,71,0.00,,,0.00,520,Wunderground v.1.15,2013-07-31 12:42:00,
2013-07-31 08:47:00,70.0,59.4,30.10,WNW,300,0.0,0.0,69,0.00,,,0.00,534,Wunderground v.1.15,2013-07-31 12:47:00,
2013-07-31 08:52:00,70.3,60.1,30.10,WNW,292,0.0,0.0,70,0.00,,,0.00,547,Wunderground v.1.15,2013-07-31 12:52:00,
2013-07-31 08:57:00,70.6,59.1,30.10,WSW,249,1.0,1.0,67,0.00,,,0.00,563,Wunderground v.1.15,2013-07-31 12:57:00,
2013-07-31 09:02:00,71.0,60.3,30.10,West,275,1.0,2.0,69,0.00,,,0.00,580,Wunderground v.1.15,2013-07-31 13:02:00,
2013-07-31 09:07:00,71.2,59.7,30.10,WSW,256,1.0,1.0,67,0.00,,,0.00,557,Wunderground v.1.15,2013-07-31 13:07:00,
2013-07-31 09:12:00,71.2,59.7,30.10,NW,308,1.0,1.0,67,0.00,,,0.00,610,Wunderground v.1.15,2013-07-31 13:12:00,
2013-07-31 09:17:00,71.6,60.1,30.10,NW,311,1.0,1.0,67,0.00,,,0.00,622,Wunderground v.1.15,2013-07-31 13:17:00,
2013-07-31 09:22:00,71.8,58.5,30.10,WNW,285,1.0,2.0,63,0.00,,,0.00,635,Wunderground v.1.15,2013-07-31 13:22:00,
2013-07-31 09:27:00,71.6,58.3,30.10,North,355,3.0,3.0,63,0.00,,,0.00,645,Wunderground v.1.15,2013-07-31 13:27:00,
2013-07-31 09:32:00,72.0,58.7,30.10,NW,320,2.0,3.0,63,0.00,,,0.00,661,Wunderground v.1.15,2013-07-31 13:32:00,
2013-07-31 09:37:00,72.5,58.7,30.09,WNW,289,1.0,1.0,62,0.00,,,0.00,671,Wunderground v.1.15,2013-07-31 13:37:00,
2013-07-31 09:42:00,73.1,59.8,30.09,WNW,283,1.0,1.0,63,0.00,,,0.00,689,Wunderground v.1.15,2013-07-31 13:42:00,
2013-07-31 09:47:00,73.5,59.2,30.09,ENE,77,1.0,2.0,61,0.00,,,0.00,696,Wunderground v.1.15,2013-07-31 13:47:00,
2013-07-31 09:52:00,73.7,58.0,30.09,NW,307,1.0,2.0,58,0.00,,,0.00,717,Wunderground v.1.15,2013-07-31 13:52:00,
2013-07-31 09:57:00,73.9,56.7,30.09,East,98,1.0,1.0,55,0.00,,,0.00,726,Wunderground v.1.15,2013-07-31 13:57:00,
2013-07-31 10:02:00,74.7,58.0,30.09,NW,324,0.0,1.0,56,0.00,,,0.00,738,Wunderground v.1.15,2013-07-31 14:02:00,
2013-07-31 10:07:00,75.0,57.7,30.09,NNW,340,1.0,2.0,55,0.00,,,0.00,751,Wunderground v.1.15,2013-07-31 14:07:00,
2013-07-31 10:12:00,75.4,57.6,30.09,NNW,341,1.0,2.0,54,0.00,,,0.00,656,Wunderground v.1.15,2013-07-31 14:12:00,
2013-07-31 10:22:00,75.0,57.2,30.08,East,88,2.0,2.0,54,0.00,,,0.00,777,Wunderground v.1.15,2013-07-31 14:22:00,
2013-07-31 10:27:00,75.3,57.0,30.08,ESE,111,1.0,1.0,53,0.00,,,0.00,784,Wunderground v.1.15,2013-07-31 14:27:00,
2013-07-31 10:32:00,76.0,58.2,30.08,WNW,293,1.0,1.0,54,0.00,,,0.00,791,Wunderground v.1.15,2013-07-31 14:32:00,
2013-07-31 10:37:00,75.9,57.5,30.08,WSW,257,2.0,2.0,53,0.00,,,0.00,798,Wunderground v.1.15,2013-07-31 14:37:00,
2013-07-31 10:42:00,75.7,57.4,30.08,East,85,2.0,3.0,53,0.00,,,0.00,803,Wunderground v.1.15,2013-07-31 14:42:00,
2013-07-31 10:47:00,75.5,57.2,30.08,West,264,2.0,2.0,53,0.00,,,0.00,823,Wunderground v.1.15,2013-07-31 14:47:00,
2013-07-31 10:52:00,75.3,57.0,30.08,WNW,299,3.0,3.0,53,0.00,,,0.00,865,Wunderground v.1.15,2013-07-31 14:52:00,
2013-07-31 10:57:00,75.4,58.1,30.08,West,274,3.0,3.0,55,0.00,,,0.00,872,Wunderground v.1.15,2013-07-31 14:57:00,
2013-07-31 11:02:00,75.4,56.0,30.08,WNW,295,3.0,3.0,51,0.00,,,0.00,877,Wunderground v.1.15,2013-07-31 15:02:00,
2013-07-31 11:07:00,75.5,55.6,30.08,SSW,205,2.0,2.0,50,0.00,,,0.00,858,Wunderground v.1.15,2013-07-31 15:07:00,
2013-07-31 11:12:00,76.3,56.3,30.08,NNW,340,1.0,2.0,50,0.00,,,0.00,861,Wunderground v.1.15,2013-07-31 15:12:00,
2013-07-31 11:17:00,76.5,57.0,30.07,WSW,250,2.0,2.0,51,0.00,,,0.00,875,Wunderground v.1.15,2013-07-31 15:17:00,
2013-07-31 11:27:00,76.8,54.5,30.07,NW,312,2.0,2.0,46,0.00,,,0.00,842,Wunderground v.1.15,2013-07-31 15:27:00,
2013-07-31 11:32:00,77.2,55.4,30.07,NW,317,1.0,2.0,47,0.00,,,0.00,900,Wunderground v.1.15,2013-07-31 15:32:00,
2013-07-31 11:37:00,77.7,55.3,30.07,ENE,71,1.0,2.0,46,0.00,,,0.00,907,Wunderground v.1.15,2013-07-31 15:37:00,
2013-07-31 11:42:00,78.2,54.5,30.07,NW,314,1.0,4.0,44,0.00,,,0.00,909,Wunderground v.1.15,2013-07-31 15:42:00,
2013-07-31 11:52:00,78.3,55.2,30.07,NW,315,2.0,4.0,45,0.00,,,0.00,923,Wunderground v.1.15,2013-07-31 15:52:00,
2013-07-31 11:57:00,77.8,54.8,30.07,WNW,300,2.0,4.0,45,0.00,,,0.00,928,Wunderground v.1.15,2013-07-31 15:57:00,
2013-07-31 12:02:00,77.5,55.1,30.07,WNW,297,2.0,4.0,46,0.00,,,0.00,930,Wunderground v.1.15,2013-07-31 16:02:00,
2013-07-31 12:07:00,78.3,56.4,30.06,West,277,2.0,2.0,47,0.00,,,0.00,935,Wunderground v.1.15,2013-07-31 16:07:00,
2013-07-31 12:12:00,79.1,57.1,30.07,WNW,293,1.0,2.0,47,0.00,,,0.00,962,Wunderground v.1.15,2013-07-31 16:12:00,
2013-07-31 12:17:00,79.2,55.4,30.06,ENE,71,2.0,2.0,44,0.00,,,0.00,1007,Wunderground v.1.15,2013-07-31 16:17:00,
2013-07-31 12:22:00,79.8,55.3,30.06,ESE,111,2.0,2.0,43,0.00,,,0.00,977,Wunderground v.1.15,2013-07-31 16:22:00,
2013-07-31 12:27:00,80.0,56.1,30.06,NNW,348,1.0,2.0,44,0.00,,,0.00,1039,Wunderground v.1.15,2013-07-31 16:27:00,
2013-07-31 12:32:00,80.0,56.1,30.06,WNW,292,2.0,2.0,44,0.00,,,0.00,221,Wunderground v.1.15,2013-07-31 16:32:00,
2013-07-31 12:37:00,79.1,57.1,30.05,West,267,2.0,2.0,47,0.00,,,0.00,221,Wunderground v.1.15,2013-07-31 16:37:00,
2013-07-31 12:42:00,79.0,57.0,30.05,West,277,2.0,2.0,47,0.00,,,0.00,1014,Wunderground v.1.15,2013-07-31 16:42:00,
2013-07-31 12:47:00,79.3,56.1,30.05,NW,322,1.0,1.0,45,0.00,,,0.00,979,Wunderground v.1.15,2013-07-31 16:47:00,
2013-07-31 12:52:00,79.3,57.3,30.05,WSW,246,2.0,2.0,47,0.00,,,0.00,946,Wunderground v.1.15,2013-07-31 16:52:00,
2013-07-31 12:57:00,79.3,56.1,30.05,NW,311,3.0,3.0,45,0.00,,,0.00,919,Wunderground v.1.15,2013-07-31 16:57:00,
2013-07-31 13:02:00,79.8,55.9,30.05,ESE,109,2.0,3.0,44,0.00,,,0.00,960,Wunderground v.1.15,2013-07-31 17:02:00,
2013-07-31 13:07:00,80.0,54.8,30.05,WNW,299,2.0,2.0,42,0.00,,,0.00,947,Wunderground v.1.15,2013-07-31 17:07:00,
2013-07-31 13:12:00,80.2,56.9,30.05,NE,36,2.0,2.0,45,0.00,,,0.00,930,Wunderground v.1.15,2013-07-31 17:12:00,
2013-07-31 13:17:00,80.7,56.8,30.05,SSW,202,2.0,2.0,44,0.00,,,0.00,939,Wunderground v.1.15,2013-07-31 17:17:00,
2013-07-31 13:22:00,80.5,55.3,30.05,NE,49,2.0,2.0,42,0.00,,,0.00,313,Wunderground v.1.15,2013-07-31 17:22:00,
2013-07-31 13:27:00,80.5,55.9,30.04,NNW,336,2.0,3.0,43,0.00,,,0.00,919,Wunderground v.1.15,2013-07-31 17:27:00,
2013-07-31 13:32:00,80.7,56.1,30.05,West,261,1.0,3.0,43,0.00,,,0.00,942,Wunderground v.1.15,2013-07-31 17:32:00,
2013-07-31 13:37:00,80.7,57.4,30.04,WSW,242,2.0,2.0,45,0.00,,,0.00,898,Wunderground v.1.15,2013-07-31 17:37:00,
2013-07-31 13:47:00,80.9,55.0,30.04,WSW,251,1.0,2.0,41,0.00,,,0.00,805,Wunderground v.1.15,2013-07-31 17:47:00,
2013-07-31 13:52:00,80.7,54.8,30.04,West,271,2.0,2.0,41,0.00,,,0.00,309,Wunderground v.1.15,2013-07-31 17:52:00,
2013-07-31 13:57:00,81.0,56.4,30.04,SE,133,1.0,1.0,43,0.00,,,0.00,779,Wunderground v.1.15,2013-07-31 17:57:00,
2013-07-31 14:02:00,81.8,55.1,30.04,East,93,1.0,2.0,40,0.00,,,0.00,874,Wunderground v.1.15,2013-07-31 18:02:00,
2013-07-31 14:12:00,82.8,55.3,30.03,West,261,1.0,2.0,39,0.00,,,0.00,949,Wunderground v.1.15,2013-07-31 18:12:00,
2013-07-31 14:22:00,83.4,55.1,30.03,WSW,254,1.0,3.0,38,0.00,,,0.00,954,Wunderground v.1.15,2013-07-31 18:22:00,
2013-07-31 14:27:00,82.8,55.3,30.03,East,96,2.0,2.0,39,0.00,,,0.00,900,Wunderground v.1.15,2013-07-31 18:27:00,
2013-07-31 14:32:00,82.6,55.1,30.03,NNW,332,2.0,2.0,39,0.00,,,0.00,216,Wunderground v.1.15,2013-07-31 18:32:00,
2013-07-31 14:37:00,82.1,56.7,30.03,WSW,254,2.0,2.0,42,0.00,,,0.00,279,Wunderground v.1.15,2013-07-31 18:37:00,
2013-07-31 14:42:00,82.5,56.4,30.03,SW,225,1.0,2.0,41,0.00,,,0.00,796,Wunderground v.1.15,2013-07-31 18:42:00,
2013-07-31 14:47:00,82.7,56.6,30.03,NW,317,1.0,3.0,41,0.00,,,0.00,765,Wunderground v.1.15,2013-07-31 18:47:00,
2013-07-31 14:52:00,81.7,55.0,30.03,West,279,2.0,3.0,40,0.00,,,0.00,779,Wunderground v.1.15,2013-07-31 18:52:00,
2013-07-31 14:57:00,82.0,56.6,30.02,WSW,250,1.0,2.0,42,0.00,,,0.00,761,Wunderground v.1.15,2013-07-31 18:57:00,
2013-07-31 15:02:00,82.6,55.1,30.02,South,181,1.0,2.0,39,0.00,,,0.00,742,Wunderground v.1.15,2013-07-31 19:02:00,
2013-07-31 15:07:00,83.1,55.6,30.02,South,171,1.0,1.0,39,0.00,,,0.00,726,Wunderground v.1.15,2013-07-31 19:07:00,
2013-07-31 15:12:00,83.3,55.0,30.02,ESE,104,1.0,1.0,38,0.00,,,0.00,759,Wunderground v.1.15,2013-07-31 19:12:00,
2013-07-31 15:17:00,83.6,55.3,30.02,SE,131,1.0,1.0,38,0.00,,,0.00,759,Wunderground v.1.15,2013-07-31 19:17:00,
2013-07-31 15:22:00,83.9,55.6,30.02,South,186,1.0,1.0,38,0.00,,,0.00,780,Wunderground v.1.15,2013-07-31 19:22:00,
2013-07-31 15:32:00,84.0,54.2,30.02,ESE,106,2.0,2.0,36,0.00,,,0.00,735,Wunderground v.1.15,2013-07-31 19:32:00,
2013-07-31 15:37:00,83.8,54.0,30.01,SE,146,2.0,2.0,36,0.00,,,0.00,745,Wunderground v.1.15,2013-07-31 19:37:00,
2013-07-31 15:42:00,83.2,59.0,30.02,SW,225,1.0,2.0,44,0.00,,,0.00,146,Wunderground v.1.15,2013-07-31 19:42:00,
2013-07-31 15:47:00,82.6,55.1,30.01,WSW,241,1.0,1.0,39,0.00,,,0.00,650,Wunderground v.1.15,2013-07-31 19:47:00,
2013-07-31 15:57:00,82.7,56.6,30.01,WNW,289,2.0,2.0,41,0.00,,,0.00,218,Wunderground v.1.15,2013-07-31 19:57:00,
2013-07-31 16:07:00,82.5,54.3,30.01,West,279,1.0,1.0,38,0.00,,,0.00,689,Wunderground v.1.15,2013-07-31 20:07:00,
2013-07-31 16:17:00,83.9,54.8,30.01,WNW,295,0.0,0.0,37,0.00,,,0.00,200,Wunderground v.1.15,2013-07-31 20:17:00,
2013-07-31 16:22:00,83.9,54.8,30.01,SE,129,1.0,1.0,37,0.00,,,0.00,666,Wunderground v.1.15,2013-07-31 20:22:00,
2013-07-31 16:27:00,83.5,56.6,30.01,South,172,1.0,1.0,40,0.00,,,0.00,195,Wunderground v.1.15,2013-07-31 20:27:00,
2013-07-31 16:32:00,82.2,56.8,30.01,West,265,1.0,2.0,42,0.00,,,0.00,204,Wunderground v.1.15,2013-07-31 20:32:00,
2013-07-31 16:37:00,81.8,56.5,30.01,WSW,254,1.0,1.0,42,0.00,,,0.00,190,Wunderground v.1.15,2013-07-31 20:37:00,
2013-07-31 16:42:00,81.6,58.2,30.01,WSW,254,0.0,1.0,45,0.00,,,0.00,113,Wunderground v.1.15,2013-07-31 20:42:00,
2013-07-31 16:47:00,80.5,60.1,30.01,WSW,253,0.0,0.0,50,0.00,,,0.00,113,Wunderground v.1.15,2013-07-31 20:47:00,
2013-07-31 16:52:00,79.3,61.7,30.01,WSW,253,1.0,1.0,55,0.00,,,0.00,142,Wunderground v.1.15,2013-07-31 20:52:00,
2013-07-31 16:57:00,78.2,61.7,30.01,WSW,253,0.0,0.0,57,0.00,,,0.00,162,Wunderground v.1.15,2013-07-31 20:57:00,
2013-07-31 17:02:00,77.2,61.8,30.01,WSW,253,0.0,0.0,59,0.00,,,0.00,153,Wunderground v.1.15,2013-07-31 21:02:00,
2013-07-31 17:07:00,76.7,62.7,30.01,WSW,253,0.0,0.0,62,0.00,,,0.00,146,Wunderground v.1.15,2013-07-31 21:07:00,
2013-07-31 17:17:00,76.4,62.9,30.00,WSW,253,0.0,0.0,63,0.00,,,0.00,139,Wunderground v.1.15,2013-07-31 21:17:00,
2013-07-31 17:22:00,76.4,63.8,30.00,WSW,253,0.0,0.0,65,0.00,,,0.00,193,Wunderground v.1.15,2013-07-31 21:22:00,
2013-07-31 17:27:00,76.2,64.0,30.00,WSW,253,0.0,0.0,66,0.00,,,0.00,167,Wunderground v.1.15,2013-07-31 21:27:00,
2013-07-31 17:37:00,77.0,64.3,30.00,WSW,253,0.0,0.0,65,0.00,,,0.00,269,Wunderground v.1.15,2013-07-31 21:37:00,
2013-07-31 17:42:00,77.2,64.5,30.00,WSW,253,0.0,0.0,65,0.00,,,0.00,281,Wunderground v.1.15,2013-07-31 21:42:00,
2013-07-31 17:47:00,77.1,64.4,30.00,WSW,253,0.0,0.0,65,0.00,,,0.00,167,Wunderground v.1.15,2013-07-31 21:47:00,
2013-07-31 17:52:00,77.1,64.9,30.00,WSW,253,0.0,0.0,66,0.00,,,0.00,179,Wunderground v.1.15,2013-07-31 21:52:00,
2013-07-31 17:57:00,76.9,64.7,30.00,WSW,253,0.0,0.0,66,0.00,,,0.00,183,Wunderground v.1.15,2013-07-31 21:57:00,
2013-07-31 18:02:00,76.6,65.2,30.00,WSW,253,0.0,0.0,68,0.00,,,0.00,160,Wunderground v.1.15,2013-07-31 22:02:00,
2013-07-31 18:07:00,76.4,65.1,30.00,WSW,253,0.0,0.0,68,0.00,,,0.00,162,Wunderground v.1.15,2013-07-31 22:07:00,
2013-07-31 18:12:00,76.2,64.4,30.00,WSW,253,0.0,0.0,67,0.00,,,0.00,158,Wunderground v.1.15,2013-07-31 22:12:00,
2013-07-31 18:17:00,76.0,64.2,30.00,WSW,253,0.0,0.0,67,0.00,,,0.00,169,Wunderground v.1.15,2013-07-31 22:17:00,
2013-07-31 18:27:00,75.4,64.5,30.00,WSW,253,0.0,0.0,69,0.00,,,0.00,141,Wunderground v.1.15,2013-07-31 22:27:00,
2013-07-31 18:32:00,75.4,64.9,30.00,WSW,253,0.0,0.0,70,0.00,,,0.00,118,Wunderground v.1.15,2013-07-31 22:32:00,
2013-07-31 18:37:00,75.3,65.2,30.00,WSW,253,0.0,0.0,71,0.00,,,0.00,83,Wunderground v.1.15,2013-07-31 22:37:00,
2013-07-31 18:47:00,74.3,65.1,30.00,WSW,253,0.0,0.0,73,0.00,,,0.00,69,Wunderground v.1.15,2013-07-31 22:47:00,
2013-07-31 18:52:00,73.9,64.7,30.00,WSW,253,0.0,0.0,73,0.00,,,0.00,58,Wunderground v.1.15,2013-07-31 22:52:00,
2013-07-31 18:57:00,73.6,64.8,30.00,WSW,253,0.0,0.0,74,0.00,,,0.00,53,Wunderground v.1.15,2013-07-31 22:57:00,
2013-07-31 19:02:00,73.2,64.4,30.00,WSW,253,0.0,0.0,74,0.00,,,0.00,46,Wunderground v.1.15,2013-07-31 23:02:00,
2013-07-31 19:07:00,72.8,64.0,30.00,WSW,253,0.0,0.0,74,0.00,,,0.00,39,Wunderground v.1.15,2013-07-31 23:07:00,
2013-07-31 19:12:00,72.5,63.7,30.00,WSW,253,0.0,0.0,74,0.00,,,0.00,37,Wunderground v.1.15,2013-07-31 23:12:00,
2013-07-31 19:17:00,72.2,63.8,30.00,WSW,253,0.0,0.0,75,0.00,,,0.00,35,Wunderground v.1.15,2013-07-31 23:17:00,
2013-07-31 19:22:00,72.1,63.7,30.00,WSW,253,0.0,0.0,75,0.00,,,0.00,33,Wunderground v.1.15,2013-07-31 23:22:00,
2013-07-31 19:27:00,72.0,63.6,30.00,WSW,253,0.0,0.0,75,0.00,,,0.00,28,Wunderground v.1.15,2013-07-31 23:27:00,
2013-07-31 19:32:00,71.7,63.0,30.00,WSW,253,0.0,0.0,74,0.00,,,0.00,25,Wunderground v.1.15,2013-07-31 23:32:00,
2013-07-31 19:37:00,71.4,63.1,29.99,WSW,253,0.0,0.0,75,0.00,,,0.00,21,Wunderground v.1.15,2013-07-31 23:37:00,
2013-07-31 19:47:00,70.7,63.1,29.99,WSW,253,0.0,0.0,77,0.00,,,0.00,14,Wunderground v.1.15,2013-07-31 23:47:00,
2013-07-31 19:52:00,70.4,62.8,29.99,WSW,253,0.0,0.0,77,0.00,,,0.00,12,Wunderground v.1.15,2013-07-31 23:52:00,
2013-07-31 19:57:00,70.2,62.6,29.99,WSW,253,0.0,0.0,77,0.00,,,0.00,9,Wunderground v.1.15,2013-07-31 23:57:00,
2013-07-31 20:02:00,70.1,62.9,29.99,WSW,253,0.0,0.0,78,0.00,,,0.00,7,Wunderground v.1.15,2013-08-01 00:02:00,
2013-07-31 20:07:00,69.7,62.5,30.00,WSW,253,0.0,0.0,78,0.00,,,0.00,5,Wunderground v.1.15,2013-08-01 00:07:00,
2013-07-31 20:12:00,69.4,62.2,29.99,WSW,253,0.0,0.0,78,0.00,,,0.00,0,Wunderground v.1.15,2013-08-01 00:12:00,
2013-07-31 20:17:00,69.3,62.5,29.99,WSW,253,0.0,0.0,79,0.00,,,0.00,0,Wunderground v.1.15,2013-08-01 00:17:00,
2013-07-31 20:22:00,68.9,61.8,30.00,WSW,253,0.0,0.0,78,0.00,,,0.00,0,Wunderground v.1.15,2013-08-01 00:22:00,
2013-07-31 20:27:00,68.8,62.0,30.00,WSW,253,0.0,0.0,79,0.00,,,0.00,0,Wunderground v.1.15,2013-08-01 00:27:00,
2013-07-31 20:32:00,68.6,62.2,30.00,WSW,253,0.0,0.0,80,0.00,,,0.00,0,Wunderground v.1.15,2013-08-01 00:32:00,
2013-07-31 20:37:00,68.3,61.9,30.00,WSW,253,0.0,0.0,80,0.00,,,0.00,0,Wunderground v.1.15,2013-08-01 00:37:00,
2013-07-31 20:42:00,68.0,61.9,30.00,WSW,253,0.0,0.0,81,0.00,,,0.00,0,Wunderground v.1.15,2013-08-01 00:42:00,
2013-07-31 20:47:00,67.7,61.7,30.00,WSW,253,0.0,0.0,81,0.00,,,0.00,0,Wunderground v.1.15,2013-08-01 00:47:00,
2013-07-31 20:52:00,67.5,61.8,30.00,WSW,253,0.0,0.0,82,0.00,,,0.00,0,Wunderground v.1.15,2013-08-01 00:52:00,
2013-07-31 20:57:00,67.3,61.6,30.00,WSW,253,0.0,0.0,82,0.00,,,0.00,0,Wunderground v.1.15,2013-08-01 00:57:00,
2013-07-31 21:02:00,67.0,61.0,30.00,WSW,253,0.0,0.0,81,0.00,,,0.00,0,Wunderground v.1.15,2013-08-01 01:02:00,
2013-07-31 21:07:00,66.8,60.8,30.00,WSW,253,0.0,0.0,81,0.00,,,0.00,0,Wunderground v.1.15,2013-08-01 01:07:00,
2013-07-31 21:17:00,66.5,61.2,30.00,WSW,253,0.0,0.0,83,0.00,,,0.00,0,Wunderground v.1.15,2013-08-01 01:17:00,
2013-07-31 21:22:00,66.3,61.0,30.00,WSW,253,0.0,0.0,83,0.00,,,0.00,0,Wunderground v.1.15,2013-08-01 01:22:00,
2013-07-31 21:27:00,66.1,61.1,30.00,WSW,253,0.0,0.0,84,0.00,,,0.00,0,Wunderground v.1.15,2013-08-01 01:27:00,
2013-07-31 21:37:00,65.7,60.7,30.00,WSW,253,0.0,0.0,84,0.00,,,0.00,0,Wunderground v.1.15,2013-08-01 01:37:00,
2013-07-31 21:42:00,65.4,60.8,30.00,WSW,253,0.0,0.0,85,0.00,,,0.00,0,Wunderground v.1.15,2013-08-01 01:42:00,
2013-07-31 21:47:00,65.2,60.6,30.00,WSW,253,0.0,0.0,85,0.00,,,0.00,0,Wunderground v.1.15,2013-08-01 01:47:00,
2013-07-31 21:52:00,65.0,60.4,30.00,WSW,253,0.0,0.0,85,0.00,,,0.00,0,Wunderground v.1.15,2013-08-01 01:52:00,
2013-07-31 21:57:00,64.8,60.8,30.00,WSW,253,0.0,0.0,87,0.00,,,0.00,0,Wunderground v.1.15,2013-08-01 01:57:00,
2013-07-31 22:02:00,64.6,61.0,30.00,WSW,253,0.0,0.0,88,0.00,,,0.00,0,Wunderground v.1.15,2013-08-01 02:02:00,
2013-07-31 22:07:00,64.4,60.4,30.00,WSW,253,0.0,0.0,87,0.00,,,0.00,0,Wunderground v.1.15,2013-08-01 02:07:00,
2013-07-31 22:12:00,64.2,60.6,30.00,SW,216,0.0,0.0,88,0.00,,,0.00,0,Wunderground v.1.15,2013-08-01 02:12:00,
2013-07-31 22:17:00,64.1,60.5,30.00,SW,216,0.0,0.0,88,0.00,,,0.00,0,Wunderground v.1.15,2013-08-01 02:17:00,
2013-07-31 22:22:00,64.0,60.4,30.00,SW,216,0.0,0.0,88,0.00,,,0.00,0,Wunderground v.1.15,2013-08-01 02:22:00,
2013-07-31 22:27:00,63.8,60.5,30.00,SW,216,0.0,0.0,89,0.00,,,0.00,0,Wunderground v.1.15,2013-08-01 02:27:00,
2013-07-31 22:37:00,63.5,60.5,30.01,SE,145,0.0,0.0,90,0.00,,,0.00,0,Wunderground v.1.15,2013-08-01 02:37:00,
2013-07-31 22:42:00,63.3,60.3,30.01,SE,145,0.0,0.0,90,0.00,,,0.00,0,Wunderground v.1.15,2013-08-01 02:42:00,
2013-07-31 22:47:00,63.1,60.4,30.00,SE,145,0.0,0.0,91,0.00,,,0.00,0,Wunderground v.1.15,2013-08-01 02:47:00,
2013-07-31 22:52:00,62.9,60.2,30.00,SE,145,0.0,0.0,91,0.00,,,0.00,0,Wunderground v.1.15,2013-08-01 02:52:00,
2013-07-31 22:57:00,62.9,60.2,30.00,SE,145,0.0,0.0,91,0.00,,,0.00,0,Wunderground v.1.15,2013-08-01 02:57:00,
2013-07-31 23:02:00,62.8,60.1,30.00,SE,145,0.0,0.0,91,0.00,,,0.00,0,Wunderground v.1.15,2013-08-01 03:02:00,
2013-07-31 23:12:00,62.3,59.9,30.01,SE,145,0.0,0.0,92,0.00,,,0.00,0,Wunderground v.1.15,2013-08-01 03:12:00,
2013-07-31 23:17:00,62.2,60.2,30.01,SE,145,0.0,0.0,93,0.00,,,0.00,0,Wunderground v.1.15,2013-08-01 03:17:00,
2013-07-31 23:22:00,62.1,60.1,30.01,SE,145,0.0,0.0,93,0.00,,,0.00,0,Wunderground v.1.15,2013-08-01 03:22:00,
2013-07-31 23:27:00,62.0,60.3,30.01,SE,145,0.0,0.0,94,0.00,,,0.00,0,Wunderground v.1.15,2013-08-01 03:27:00,
2013-07-31 23:32:00,61.9,60.2,30.01,SE,145,0.0,0.0,94,0.00,,,0.00,0,Wunderground v.1.15,2013-08-01 03:32:00,
2013-07-31 23:37:00,61.7,59.7,30.01,SE,145,0.0,0.0,93,0.00,,,0.00,0,Wunderground v.1.15,2013-08-01 03:37:00,
2013-07-31 23:42:00,61.5,59.8,30.01,SE,145,0.0,0.0,94,0.00,,,0.00,0,Wunderground v.1.15,2013-08-01 03:42:00,
2013-07-31 23:52:00,61.3,59.6,30.01,SE,145,0.0,0.0,94,0.00,,,0.00,0,Wunderground v.1.15,2013-08-01 03:52:00,
2013-07-31 23:57:00,61.2,59.5,30.01,SE,145,0.0,0.0,94,0.00,,,0.00,0,Wunderground v.1.15,2013-08-01 03:57:00,